Cortez, CO

7:57 AM MST on December 11, 2016 (GMT -0700)
Indian Camp Ranch | | Change Station

Elev 6237 ft 37.35 °N, 108.64 °W | Updated 31 seconds ago

Overcast
Overcast
39.9 °F
Feels Like 36 °F
N
4.9
Wind Variable Wind from West
Gusts 7.4 mph

Today
High -- | Low -- °F
--% Chance of Precip.
Yesterday
High -- | Low -- °F
Precip. -- in
Pressure 30.02 in
Visibility 10.0 miles
Clouds Mostly Cloudy 2900 ft
Overcast 3600 ft
Windchill 36 °F
Dew Point 37 °F
Humidity 88%
Rainfall 0.04 in
Snow Depth Not available.
7:18 AM 4:56 PM
Waxing Gibbous, 92% visible
SPECI KCEZ 111408Z AUTO 01004KT 10SM BKN029 OVC036 03/02 A3002 RMK AO2 T00330022
Pressure 30.02 in
Visibility 10.0 miles
Clouds Mostly Cloudy 2900 ft
Overcast 3600 ft
Windchill 36 °F
Dew Point 37 °F
Humidity 88%
Rainfall 0.04 in
Snow Depth Not available.
7:18 AM 4:56 PM
Waxing Gibbous, 92% visible
SPECI KCEZ 111408Z AUTO 01004KT 10SM BKN029 OVC036 03/02 A3002 RMK AO2 T00330022

10-Day Weather Forecast

Almanac

Astronomy

Dec. 11, 2016 Rise Set
Actual Time
Civil Twilight
Nautical Twilight
Astronomical Twilight
Moon
Length of Visible Light
Length of Day
Tomorrow will be .
, % of the Moon is Illuminated

Today's Extremes

State Highs State Lows

Community

WunderPhotos

Upload Photos

1,956,719 photos uploaded!

WunderBlog® & News

Nearby

Air Quality

  Air Quality AQ Index Pollutant
Not available.

Snow Depth

Station Depth Elevation

Earthquake Activity

City Distance Mag. Time & Date
Minimum magnitude displayed is 2.5.

Coastal Water Temperatures

Place Temperature

Stations

Nearby Weather Stations

Station Location Temp. Windchill Dew Point Humidity Wind Precip. Elev Updated Type
                   

Watches & Warnings

There are currently no watches in effect.